KITH

Ithaca Tompkins Regional Airport

Ithaca, New York, USA
METAR KITH 260256Z 02005KT 10SM SCT009 06/04 A2997 RMK AO2 SLP154 T00560044 53018
Observed Flight Rules
Feb-26 @ 02:56 UTC (27 minutes ago) Visual Flight Rules
Wind Visibility Clouds
20° at 5 knots 10 miles
  • Scattered at 900' AGL
Temperatures Readings
Current 6°C / 43°F
Dewpoint 4°C / 39°F
Humidity 87%
Altimeter 29.97" Hg
Pressure 1015.4 hPa
Elevation 335
METAR KITH 260256Z 02005KT 10SM SCT009 06/04 A2997 RMK AO2 SLP154 T00560044 53018
Observed Flight Rules
Feb-26 @ 02:56 UTC
(27 minutes ago)
VFR
Wind Visibility
20° at 5 knots 10 miles
Clouds
  • Scattered at 900' AGL
Temperature Dewpoint
6°C / 43°F 4°C / 39°F
Humidity Altimeter Pressure
87% 29.97" Hg 1015.4 hPa